Time;durP1;ratioP1;P1;durP2;ratioP2;P2;SDS_P1;SDS_P2;PMS_P1;PMS_P2;Temp;Humidity;BMP_temperature;BMP_pressure;BME280_temperature;BME280_humidity;BME280_pressure;Samples;Min_cycle;Max_cycle;Signal;HPM_P1;HPM_P2
2022/09/28 00:02:04;;;;;;;1.42;1.33;;;10.80;99.90;;;;;;5066642;28;20271;-77
2022/09/28 00:04:33;;;;;;;1.35;1.33;;;10.70;99.90;;;;;;5061132;28;20218;-76
2022/09/28 00:07:00;;;;;;;1.17;1.17;;;10.70;99.90;;;;;;5058532;28;20525;-76
2022/09/28 00:09:27;;;;;;;1.25;1.25;;;10.70;99.90;;;;;;5066672;28;20238;-76
2022/09/28 00:11:55;;;;;;;3.22;1.70;;;10.60;99.90;;;;;;5062921;28;20793;-76
2022/09/28 00:14:23;;;;;;;1.20;1.20;;;10.60;99.90;;;;;;5064939;28;20328;-77
2022/09/28 00:16:50;;;;;;;1.10;1.10;;;10.60;99.90;;;;;;5063707;28;20293;-77
2022/09/28 00:19:17;;;;;;;1.27;1.27;;;10.50;99.90;;;;;;5068721;28;20210;-77
2022/09/28 00:21:46;;;;;;;1.10;1.10;;;10.40;99.90;;;;;;5063052;28;20206;-76
2022/09/28 00:24:15;;;;;;;1.40;1.40;;;10.40;99.90;;;;;;5063245;28;20222;-76
2022/09/28 00:26:45;;;;;;;1.40;1.40;;;10.40;99.90;;;;;;5066214;28;20193;-77
2022/09/28 00:29:19;;;;;;;1.25;1.25;;;10.40;99.90;;;;;;5064027;28;20891;-76
2022/09/28 00:31:46;;;;;;;1.15;1.15;;;10.40;99.90;;;;;;5065707;28;20202;-77
2022/09/28 00:34:13;;;;;;;1.38;1.30;;;10.40;99.90;;;;;;5062845;28;20700;-76
2022/09/28 00:36:45;;;;;;;1.25;1.25;;;10.40;99.90;;;;;;5064401;28;20225;-76
2022/09/28 00:39:14;;;;;;;1.40;1.40;;;10.40;99.90;;;;;;5064981;28;20698;-76
2022/09/28 00:41:41;;;;;;;1.30;1.30;;;10.30;99.90;;;;;;5067684;28;20311;-76
2022/09/28 00:44:38;;;;;;;1.10;1.10;;;10.30;99.90;;;;;;5070180;28;20275;-77
2022/09/28 00:47:16;;;;;;;1.13;1.13;;;10.30;99.90;;;;;;5069077;28;20198;-77
2022/09/28 00:49:48;;;;;;;1.05;1.05;;;10.20;99.90;;;;;;5069662;28;20222;-76
2022/09/28 00:52:22;;;;;;;1.40;1.40;;;10.20;99.90;;;;;;5070605;28;20198;-76
2022/09/28 00:54:51;;;;;;;1.20;1.20;;;10.10;99.90;;;;;;5069934;28;20703;-76
2022/09/28 00:57:21;;;;;;;1.20;1.20;;;10.10;99.90;;;;;;5067461;28;20645;-76
2022/09/28 00:59:49;;;;;;;1.40;1.40;;;10.10;99.90;;;;;;5069896;28;20225;-77
2022/09/28 01:02:16;;;;;;;1.73;1.63;;;10.10;99.90;;;;;;5066532;28;20692;-76
2022/09/28 01:04:43;;;;;;;1.30;1.30;;;10.10;99.90;;;;;;5068737;28;20209;-76
2022/09/28 01:07:11;;;;;;;1.38;1.38;;;10.10;99.90;;;;;;5068682;28;21077;-76
2022/09/28 01:09:40;;;;;;;1.20;1.20;;;10.10;99.90;;;;;;5070044;28;20247;-76
2022/09/28 01:12:08;;;;;;;1.20;1.20;;;10.10;99.90;;;;;;5068390;28;20279;-76
2022/09/28 01:14:35;;;;;;;2.15;1.55;;;10.10;99.90;;;;;;5067540;28;20283;-77
2022/09/28 01:17:08;;;;;;;1.30;1.30;;;10.10;99.90;;;;;;5072552;28;20680;-76
2022/09/28 01:19:54;;;;;;;1.30;1.30;;;10.10;99.90;;;;;;5069247;28;20284;-76
2022/09/28 01:22:35;;;;;;;1.25;1.25;;;10.10;99.90;;;;;;5069095;28;20199;-77
2022/09/28 01:25:12;;;;;;;1.63;1.52;;;10.10;99.90;;;;;;5067798;28;20217;-77
2022/09/28 01:27:44;;;;;;;1.13;1.13;;;10.00;99.90;;;;;;5066747;28;20792;-76
2022/09/28 01:30:16;;;;;;;1.30;1.30;;;10.00;99.90;;;;;;5067680;28;20218;-76
2022/09/28 01:32:49;;;;;;;1.05;1.05;;;10.00;99.90;;;;;;5067246;28;20190;-77
2022/09/28 01:35:21;;;;;;;1.20;1.20;;;10.00;99.90;;;;;;5070016;28;20229;-77
2022/09/28 01:37:52;;;;;;;1.20;1.20;;;10.00;99.90;;;;;;5067905;28;20206;-77
2022/09/28 01:40:22;;;;;;;1.23;1.23;;;10.00;99.90;;;;;;5069887;28;20692;-76
2022/09/28 01:42:54;;;;;;;1.25;1.25;;;10.00;99.90;;;;;;5068540;28;20855;-77
2022/09/28 01:45:26;;;;;;;1.40;1.30;;;10.00;99.90;;;;;;5069214;28;20198;-76
2022/09/28 01:47:58;;;;;;;1.50;1.40;;;9.90;99.90;;;;;;5070919;28;20194;-76
2022/09/28 01:50:28;;;;;;;1.35;1.35;;;10.00;99.90;;;;;;5069202;28;20226;-77
2022/09/28 01:53:00;;;;;;;1.45;1.45;;;10.00;99.90;;;;;;5068389;28;20221;-76
2022/09/28 01:55:32;;;;;;;1.30;1.30;;;10.00;99.90;;;;;;5069751;28;20207;-76
2022/09/28 01:58:04;;;;;;;1.40;1.40;;;10.00;99.90;;;;;;5067534;28;20205;-77
2022/09/28 02:00:33;;;;;;;1.17;1.17;;;10.00;99.90;;;;;;5068200;28;20900;-77
2022/09/28 02:03:07;;;;;;;1.10;1.10;;;10.00;99.90;;;;;;5067084;28;20221;-76
2022/09/28 02:05:37;;;;;;;1.15;1.15;;;10.00;99.90;;;;;;5068090;28;20286;-76
2022/09/28 02:08:08;;;;;;;1.20;1.17;;;9.90;99.90;;;;;;5066074;28;20190;-77
2022/09/28 02:10:41;;;;;;;1.48;1.40;;;9.90;99.90;;;;;;5070134;28;20214;-76
2022/09/28 02:13:15;;;;;;;1.30;1.30;;;9.90;99.90;;;;;;5066209;28;20218;-76
2022/09/28 02:15:49;;;;;;;1.35;1.35;;;9.90;99.90;;;;;;5066825;28;20195;-76
2022/09/28 02:18:17;;;;;;;1.45;1.45;;;10.00;99.90;;;;;;5067381;28;20220;-76
2022/09/28 02:20:50;;;;;;;1.30;1.23;;;10.00;99.90;;;;;;5067884;28;20304;-76
2022/09/28 02:23:19;;;;;;;1.38;1.27;;;10.00;99.90;;;;;;5066561;28;20222;-76
2022/09/28 02:25:51;;;;;;;1.40;1.40;;;10.00;99.90;;;;;;5068907;28;20205;-77
2022/09/28 02:28:20;;;;;;;1.35;1.35;;;10.00;99.90;;;;;;5063533;28;20226;-77
2022/09/28 02:30:47;;;;;;;1.33;1.33;;;10.00;99.90;;;;;;5067022;28;20249;-76
2022/09/28 02:33:19;;;;;;;1.20;1.20;;;10.00;99.90;;;;;;5072505;28;20214;-76
2022/09/28 02:35:47;;;;;;;1.45;1.45;;;10.00;99.90;;;;;;5064602;28;20199;-77
2022/09/28 02:38:15;;;;;;;1.42;1.42;;;10.00;99.90;;;;;;5067263;28;20213;-79
2022/09/28 02:40:48;;;;;;;1.40;1.40;;;9.90;99.90;;;;;;5066841;28;20214;-77
2022/09/28 02:43:23;;;;;;;1.27;1.27;;;9.90;99.90;;;;;;5067438;28;20221;-76
2022/09/28 02:46:00;;;;;;;1.10;1.10;;;9.80;99.90;;;;;;5066267;28;20264;-76
2022/09/28 02:48:48;;;;;;;1.30;1.30;;;9.80;99.90;;;;;;5066940;28;20302;-76
2022/09/28 02:51:22;;;;;;;1.20;1.20;;;9.90;99.90;;;;;;5065948;28;20210;-76
2022/09/28 02:54:06;;;;;;;1.60;1.50;;;9.90;99.90;;;;;;5073943;28;20216;-76
2022/09/28 02:56:53;;;;;;;1.40;1.38;;;10.00;99.90;;;;;;5066956;28;20683;-76
2022/09/28 02:59:34;;;;;;;1.40;1.40;;;10.00;99.90;;;;;;5065223;28;20209;-76
2022/09/28 03:02:09;;;;;;;1.38;1.38;;;10.00;99.90;;;;;;5068415;28;20213;-76
2022/09/28 03:04:42;;;;;;;1.20;1.20;;;10.00;99.90;;;;;;5064013;28;20271;-76
2022/09/28 03:07:16;;;;;;;1.10;1.10;;;9.90;99.90;;;;;;5067825;28;20251;-76
2022/09/28 03:09:49;;;;;;;1.23;1.23;;;9.90;99.90;;;;;;5067018;28;20218;-76
2022/09/28 03:12:19;;;;;;;1.45;1.45;;;9.90;99.90;;;;;;5065568;28;20205;-76
2022/09/28 03:14:48;;;;;;;1.13;1.13;;;9.90;99.90;;;;;;5065986;28;20218;-76
2022/09/28 03:17:15;;;;;;;1.27;1.27;;;9.90;99.90;;;;;;5063945;28;20248;-76
2022/09/28 03:19:42;;;;;;;1.50;1.50;;;9.90;99.90;;;;;;5065651;28;20228;-77
2022/09/28 03:22:09;;;;;;;1.33;1.33;;;10.00;99.90;;;;;;5067843;28;20204;-76
2022/09/28 03:24:36;;;;;;;1.40;1.40;;;10.00;99.90;;;;;;5066401;28;20214;-77
2022/09/28 03:27:03;;;;;;;1.20;1.20;;;10.10;99.90;;;;;;5070111;28;20216;-78
2022/09/28 03:29:31;;;;;;;1.30;1.30;;;10.10;99.90;;;;;;5072085;28;20287;-76
2022/09/28 03:32:00;;;;;;;1.30;1.30;;;10.10;99.90;;;;;;5067441;28;20202;-76
2022/09/28 03:34:27;;;;;;;1.27;1.27;;;10.00;99.90;;;;;;5065505;28;20230;-76
2022/09/28 03:36:54;;;;;;;1.30;1.30;;;10.10;99.90;;;;;;5066576;28;20204;-76
2022/09/28 03:39:21;;;;;;;1.45;1.45;;;10.10;99.90;;;;;;5068797;28;20247;-77
2022/09/28 03:41:48;;;;;;;1.30;1.25;;;10.10;99.90;;;;;;5062817;28;20206;-76
2022/09/28 03:44:15;;;;;;;1.20;1.20;;;10.00;99.90;;;;;;5064495;28;20294;-76
2022/09/28 03:46:42;;;;;;;1.30;1.30;;;10.00;99.90;;;;;;5067148;28;20868;-76
2022/09/28 03:49:11;;;;;;;1.60;1.60;;;10.10;99.90;;;;;;5069403;28;20224;-76
2022/09/28 03:51:38;;;;;;;1.30;1.25;;;10.10;99.90;;;;;;5062984;28;20656;-76
2022/09/28 03:54:05;;;;;;;1.30;1.30;;;10.00;99.90;;;;;;5064198;28;20220;-76
2022/09/28 03:56:32;;;;;;;1.60;1.50;;;10.00;99.90;;;;;;5067066;28;20202;-76
2022/09/28 03:59:00;;;;;;;1.38;1.30;;;9.90;99.90;;;;;;5067043;28;20226;-76
2022/09/28 04:01:27;;;;;;;1.63;1.60;;;9.90;99.90;;;;;;5064940;28;20264;-76
2022/09/28 04:03:55;;;;;;;1.35;1.35;;;9.90;99.90;;;;;;5065947;28;20222;-76
2022/09/28 04:06:23;;;;;;;1.42;1.42;;;9.90;99.90;;;;;;5064993;28;20190;-76
2022/09/28 04:08:50;;;;;;;1.55;1.55;;;9.90;99.90;;;;;;5070422;28;20256;-76
2022/09/28 04:11:17;;;;;;;1.52;1.52;;;10.00;99.90;;;;;;5066205;28;20210;-77
2022/09/28 04:13:49;;;;;;;1.88;1.23;;;10.00;99.90;;;;;;5065865;28;20232;-76
2022/09/28 04:16:16;;;;;;;1.70;1.60;;;10.00;99.90;;;;;;5064970;28;20190;-77
2022/09/28 04:18:43;;;;;;;1.60;1.50;;;10.00;99.90;;;;;;5066955;28;20225;-77
2022/09/28 04:21:12;;;;;;;1.20;1.20;;;9.90;99.90;;;;;;5066807;28;20210;-77
2022/09/28 04:23:41;;;;;;;1.70;1.60;;;9.90;99.90;;;;;;5063941;28;20217;-76
2022/09/28 04:26:15;;;;;;;1.90;1.80;;;9.90;99.90;;;;;;5065931;28;20202;-76
2022/09/28 04:31:28;;;;;;;1.90;1.80;;;9.90;99.90;;;;;;5063755;28;20271;-77
2022/09/28 04:33:56;;;;;;;2.13;2.03;;;10.00;99.90;;;;;;5062649;28;20720;-76
2022/09/28 04:36:23;;;;;;;2.60;2.33;;;10.00;99.90;;;;;;5066680;28;20195;-76
2022/09/28 04:38:52;;;;;;;2.08;1.95;;;10.00;99.90;;;;;;5061842;28;20225;-77
2022/09/28 04:41:21;;;;;;;2.28;2.17;;;10.00;99.90;;;;;;5072342;28;20217;-76
2022/09/28 04:43:48;;;;;;;2.28;2.17;;;10.00;99.90;;;;;;5067927;28;20206;-76
2022/09/28 04:46:15;;;;;;;2.35;2.15;;;10.10;99.90;;;;;;5067120;28;20194;-77
2022/09/28 04:48:42;;;;;;;2.42;2.22;;;10.10;99.90;;;;;;5063703;28;20702;-76
2022/09/28 04:51:09;;;;;;;2.25;2.13;;;10.10;99.90;;;;;;5072121;28;20667;-76
2022/09/28 04:53:36;;;;;;;2.47;2.28;;;10.10;99.90;;;;;;5067036;28;20218;-76
2022/09/28 04:56:07;;;;;;;1.85;1.75;;;10.10;99.90;;;;;;5071732;28;20638;-76
2022/09/28 04:58:35;;;;;;;1.88;1.77;;;10.10;99.90;;;;;;5065219;28;22193;-76
2022/09/28 05:01:05;;;;;;;1.60;1.50;;;10.00;99.90;;;;;;5067040;28;20229;-76
2022/09/28 05:03:33;;;;;;;2.10;2.00;;;10.00;99.90;;;;;;5067877;28;20279;-76
2022/09/28 05:06:00;;;;;;;1.65;1.55;;;10.00;99.90;;;;;;5063560;28;20209;-76
2022/09/28 05:08:27;;;;;;;1.50;1.40;;;10.10;99.90;;;;;;5066772;28;20248;-77
2022/09/28 05:10:59;;;;;;;1.40;1.40;;;10.10;99.90;;;;;;5066273;28;20226;-77
2022/09/28 05:13:30;;;;;;;1.90;1.40;;;10.10;99.90;;;;;;5068397;28;20610;-76
2022/09/28 05:15:58;;;;;;;1.42;1.40;;;10.10;99.90;;;;;;5065549;28;20198;-76
2022/09/28 05:18:25;;;;;;;1.20;1.20;;;10.20;99.90;;;;;;5065154;28;20270;-76
2022/09/28 05:20:52;;;;;;;1.60;1.50;;;10.20;99.90;;;;;;5064901;28;20214;-76
2022/09/28 05:23:19;;;;;;;1.35;1.35;;;10.20;99.90;;;;;;5063374;28;20230;-75
2022/09/28 05:25:47;;;;;;;1.50;1.42;;;10.20;99.90;;;;;;5066035;28;20688;-76
2022/09/28 05:28:14;;;;;;;1.40;1.30;;;10.30;99.90;;;;;;5070332;28;20222;-77
2022/09/28 05:30:42;;;;;;;1.75;1.70;;;10.30;99.90;;;;;;5075639;28;20229;-77
2022/09/28 05:33:09;;;;;;;1.60;1.48;;;10.30;99.90;;;;;;5073822;28;20218;-77
2022/09/28 05:35:36;;;;;;;1.30;1.30;;;10.20;99.90;;;;;;5072941;28;20195;-76
2022/09/28 05:38:04;;;;;;;1.77;1.40;;;10.20;99.90;;;;;;5069258;28;20332;-75
2022/09/28 05:40:31;;;;;;;1.35;1.35;;;10.30;99.90;;;;;;5072241;28;20320;-75
2022/09/28 05:43:00;;;;;;;1.52;1.52;;;10.30;99.90;;;;;;5070819;28;20197;-75
2022/09/28 05:45:28;;;;;;;1.73;1.63;;;10.20;99.90;;;;;;5070596;28;20290;-76
2022/09/28 05:47:57;;;;;;;1.40;1.40;;;10.20;99.90;;;;;;5066566;28;20598;-76
2022/09/28 05:50:24;;;;;;;1.80;1.70;;;10.20;99.90;;;;;;5071483;28;20233;-76
2022/09/28 05:53:01;;;;;;;1.63;1.52;;;10.20;99.90;;;;;;5068806;28;20216;-75
2022/09/28 05:55:28;;;;;;;1.58;1.48;;;10.20;99.90;;;;;;5072172;28;20205;-76
2022/09/28 05:57:59;;;;;;;1.52;1.42;;;10.20;99.90;;;;;;5070650;28;20615;-75
2022/09/28 06:00:26;;;;;;;1.90;1.80;;;10.20;99.90;;;;;;5073110;28;20654;-76
2022/09/28 06:02:59;;;;;;;1.58;1.58;;;10.10;99.90;;;;;;5070459;28;20229;-75
2022/09/28 06:05:27;;;;;;;1.75;1.65;;;10.10;99.90;;;;;;5072796;28;20283;-76
2022/09/28 06:07:56;;;;;;;1.75;1.65;;;10.00;99.90;;;;;;5070674;28;20221;-75
2022/09/28 06:10:24;;;;;;;1.80;1.70;;;9.90;99.90;;;;;;5071443;28;20333;-76
2022/09/28 06:12:53;;;;;;;1.40;1.40;;;9.90;99.90;;;;;;5071793;28;20202;-75
2022/09/28 06:15:20;;;;;;;1.60;1.50;;;9.90;99.90;;;;;;5071569;28;20201;-75
2022/09/28 06:17:48;;;;;;;1.48;1.40;;;9.90;99.90;;;;;;5072004;28;20281;-75
2022/09/28 06:20:16;;;;;;;1.38;1.38;;;9.90;99.90;;;;;;5072293;28;20210;-76
2022/09/28 06:22:43;;;;;;;1.60;1.60;;;9.90;99.90;;;;;;5071311;28;20207;-75
2022/09/28 06:25:10;;;;;;;1.77;1.67;;;10.00;99.90;;;;;;5094609;28;20224;-75
2022/09/28 06:27:38;;;;;;;1.80;1.70;;;10.00;99.90;;;;;;5094030;28;20198;-76
2022/09/28 06:30:06;;;;;;;1.90;1.80;;;10.00;99.90;;;;;;5093885;28;20221;-76
2022/09/28 06:32:33;;;;;;;1.80;1.70;;;10.10;99.90;;;;;;5090565;28;20193;-75
2022/09/28 06:35:00;;;;;;;1.75;1.65;;;10.10;99.90;;;;;;5094563;28;20220;-76
2022/09/28 06:37:28;;;;;;;2.22;2.03;;;10.20;99.90;;;;;;5090838;28;20784;-76
2022/09/28 06:39:55;;;;;;;1.63;1.58;;;10.20;99.90;;;;;;5094924;28;20750;-75
2022/09/28 06:42:22;;;;;;;2.00;1.90;;;10.20;99.90;;;;;;5093257;28;20840;-76
2022/09/28 06:44:49;;;;;;;1.73;1.63;;;10.30;99.90;;;;;;5097015;28;20224;-75
2022/09/28 06:47:16;;;;;;;1.63;1.60;;;10.30;99.90;;;;;;5093529;28;20201;-75
2022/09/28 06:49:46;;;;;;;1.80;1.70;;;10.30;99.90;;;;;;5097100;28;20209;-75
2022/09/28 06:52:13;;;;;;;1.45;1.38;;;10.40;99.90;;;;;;5091555;28;20416;-76
2022/09/28 06:54:42;;;;;;;1.50;1.50;;;10.30;99.90;;;;;;5093558;28;20232;-76
2022/09/28 06:57:11;;;;;;;2.13;1.98;;;10.30;99.90;;;;;;5095130;28;20197;-76
2022/09/28 06:59:38;;;;;;;1.58;1.48;;;10.20;99.90;;;;;;5091000;28;20220;-76
2022/09/28 07:02:06;;;;;;;1.90;1.80;;;10.20;99.90;;;;;;5091747;28;20500;-76
2022/09/28 07:04:33;;;;;;;1.77;1.67;;;10.30;99.90;;;;;;5087538;28;20571;-75
2022/09/28 07:07:00;;;;;;;1.20;1.20;;;10.30;99.90;;;;;;5095450;28;20217;-76
2022/09/28 07:09:27;;;;;;;1.73;1.63;;;10.30;99.90;;;;;;5092152;28;20294;-76
2022/09/28 07:11:56;;;;;;;2.05;1.65;;;10.40;99.90;;;;;;5092700;28;20221;-75
2022/09/28 07:14:23;;;;;;;1.40;1.30;;;10.50;99.90;;;;;;5090525;28;20556;-75
2022/09/28 07:16:50;;;;;;;1.90;1.80;;;10.50;99.90;;;;;;5095778;28;20281;-75
2022/09/28 07:19:17;;;;;;;1.60;1.50;;;10.50;99.90;;;;;;5093372;28;20209;-75
2022/09/28 07:21:44;;;;;;;1.60;1.50;;;10.50;99.90;;;;;;5094816;28;20194;-75
2022/09/28 07:24:12;;;;;;;1.85;1.75;;;10.50;99.90;;;;;;5095218;28;20221;-76
2022/09/28 07:26:40;;;;;;;1.98;1.88;;;10.50;99.90;;;;;;5093469;28;20206;-76
2022/09/28 07:29:09;;;;;;;1.80;1.70;;;10.60;99.90;;;;;;5094287;28;20247;-76
2022/09/28 07:31:36;;;;;;;1.85;1.75;;;10.60;99.90;;;;;;5087726;28;20237;-76
2022/09/28 07:34:03;;;;;;;1.95;1.80;;;10.60;99.90;;;;;;5093725;28;20213;-75
2022/09/28 07:36:34;;;;;;;1.60;1.50;;;10.70;99.90;;;;;;5093449;28;20718;-76
2022/09/28 07:39:01;;;;;;;1.83;1.73;;;10.60;99.90;;;;;;5091791;28;20213;-76
2022/09/28 07:41:31;;;;;;;1.67;1.58;;;10.70;99.90;;;;;;5093965;28;20225;-76
2022/09/28 07:44:04;;;;;;;1.73;1.63;;;10.80;99.90;;;;;;5092160;28;20267;-76
2022/09/28 07:46:33;;;;;;;1.65;1.55;;;10.90;99.90;;;;;;5093594;28;20204;-75
2022/09/28 07:49:01;;;;;;;1.65;1.55;;;11.00;99.90;;;;;;5084883;28;20228;-75
2022/09/28 07:51:28;;;;;;;1.85;1.75;;;11.10;99.90;;;;;;5088182;28;20221;-75
2022/09/28 07:53:55;;;;;;;1.90;1.80;;;11.20;99.90;;;;;;5093448;28;20720;-74
2022/09/28 07:56:22;;;;;;;1.65;1.55;;;11.30;99.90;;;;;;5094680;28;20538;-74
2022/09/28 07:58:49;;;;;;;3.75;1.90;;;11.30;99.90;;;;;;5090008;28;20228;-74
2022/09/28 08:01:17;;;;;;;1.60;1.50;;;11.40;99.90;;;;;;5094155;28;20674;-76
2022/09/28 08:03:47;;;;;;;1.75;1.67;;;11.40;99.90;;;;;;5091336;28;20355;-76
2022/09/28 08:06:16;;;;;;;2.63;1.70;;;11.30;99.90;;;;;;5091431;28;20606;-75
2022/09/28 08:08:44;;;;;;;2.70;1.95;;;11.30;99.90;;;;;;5089164;28;20221;-75
2022/09/28 08:11:12;;;;;;;2.00;1.70;;;11.30;99.90;;;;;;5093259;28;20582;-76
2022/09/28 08:13:39;;;;;;;2.10;2.00;;;11.40;99.90;;;;;;5085242;28;20224;-76
2022/09/28 08:16:07;;;;;;;2.80;1.77;;;11.40;99.90;;;;;;5087342;28;20189;-76
2022/09/28 08:18:35;;;;;;;2.08;1.98;;;11.40;99.90;;;;;;5089502;28;20703;-76
2022/09/28 08:23:49;;;;;;;1.73;1.63;;;11.30;99.90;;;;;;5086592;28;20607;-76
2022/09/28 08:26:17;;;;;;;1.70;1.60;;;11.30;99.90;;;;;;5092225;28;20192;-76
2022/09/28 08:28:46;;;;;;;1.80;1.70;;;11.40;99.90;;;;;;5090491;28;20221;-76
2022/09/28 08:31:13;;;;;;;1.80;1.70;;;11.40;99.90;;;;;;5087474;28;20221;-76
2022/09/28 08:33:41;;;;;;;1.95;1.75;;;11.60;99.90;;;;;;5088324;28;20702;-75
2022/09/28 08:36:11;;;;;;;2.00;1.77;;;11.70;99.90;;;;;;5087806;28;20288;-75
2022/09/28 08:38:38;;;;;;;1.73;1.70;;;11.90;99.90;;;;;;5093750;28;20227;-76
2022/09/28 08:41:17;;;;;;;1.75;1.65;;;12.00;99.90;;;;;;5091706;28;20221;-76
2022/09/28 08:44:12;;;;;;;1.85;1.75;;;12.10;99.90;;;;;;5093460;28;20602;-76
2022/09/28 08:46:42;;;;;;;1.80;1.70;;;12.00;99.90;;;;;;5079335;28;20225;-75
2022/09/28 08:49:12;;;;;;;1.83;1.73;;;12.00;99.90;;;;;;5092074;28;20216;-76
2022/09/28 08:51:45;;;;;;;1.67;1.58;;;11.90;99.90;;;;;;5090794;28;20278;-75
2022/09/28 08:54:25;;;;;;;1.63;1.52;;;11.90;99.90;;;;;;5086035;28;20212;-76
2022/09/28 08:56:57;;;;;;;1.73;1.63;;;11.80;99.90;;;;;;5093737;28;20197;-75
2022/09/28 08:59:28;;;;;;;1.63;1.50;;;11.70;99.90;;;;;;5090983;28;20663;-75
2022/09/28 09:01:59;;;;;;;2.83;1.75;;;11.60;99.90;;;;;;5091685;28;20209;-76
2022/09/28 09:04:26;;;;;;;1.80;1.70;;;11.60;99.90;;;;;;5094031;28;20224;-76
2022/09/28 09:07:17;;;;;;;1.80;1.70;;;11.70;99.90;;;;;;5090383;28;20209;-75
2022/09/28 09:09:56;;;;;;;3.53;1.80;;;11.80;99.90;;;;;;5088317;28;20245;-76
2022/09/28 09:12:35;;;;;;;1.90;1.80;;;12.00;99.90;;;;;;5093925;28;20219;-76
2022/09/28 09:15:29;;;;;;;2.03;1.90;;;12.00;99.90;;;;;;5092515;28;20237;-75
2022/09/28 09:18:09;;;;;;;1.98;1.85;;;12.00;99.90;;;;;;5093197;28;20612;-76
2022/09/28 09:20:45;;;;;;;1.52;1.48;;;11.80;99.90;;;;;;5088793;28;20209;-76
2022/09/28 09:23:19;;;;;;;2.60;1.70;;;11.70;99.90;;;;;;5088210;28;20229;-76
2022/09/28 09:25:49;;;;;;;1.98;1.88;;;11.70;99.90;;;;;;5091964;28;20234;-78
2022/09/28 09:28:55;;;;;;;1.38;1.33;;;11.70;99.90;;;;;;5091439;28;20296;-76
2022/09/28 09:31:39;;;;;;;1.40;1.40;;;11.80;99.90;;;;;;5091384;28;20227;-75
2022/09/28 09:34:27;;;;;;;2.30;1.80;;;11.90;99.90;;;;;;5092696;28;20258;-76
2022/09/28 09:37:08;;;;;;;1.80;1.70;;;11.90;99.90;;;;;;5088418;28;20263;-75
2022/09/28 09:39:47;;;;;;;2.97;1.60;;;11.90;99.90;;;;;;5092303;28;20270;-76
2022/09/28 09:42:32;;;;;;;2.10;1.80;;;11.90;99.90;;;;;;5089508;28;20675;-76
2022/09/28 09:45:25;;;;;;;1.90;1.80;;;11.90;99.90;;;;;;5097725;28;20237;-76
2022/09/28 09:47:59;;;;;;;2.65;1.35;;;11.90;99.90;;;;;;5091113;28;20201;-75
2022/09/28 09:50:30;;;;;;;1.83;1.73;;;11.90;99.90;;;;;;5092544;28;20569;-76
2022/09/28 09:53:03;;;;;;;1.88;1.77;;;12.00;99.90;;;;;;5087845;28;20224;-76
2022/09/28 09:55:36;;;;;;;1.88;1.77;;;12.10;99.90;;;;;;5095764;28;20201;-75
2022/09/28 09:58:09;;;;;;;2.00;1.90;;;12.10;99.90;;;;;;5091712;28;20194;-75
2022/09/28 10:00:40;;;;;;;2.08;1.92;;;12.20;99.90;;;;;;5092427;28;20223;-76
2022/09/28 10:03:10;;;;;;;2.13;2.03;;;12.30;99.90;;;;;;5090001;28;20341;-76
2022/09/28 10:05:39;;;;;;;1.90;1.80;;;12.40;99.90;;;;;;5097496;28;20251;-76
2022/09/28 10:08:15;;;;;;;1.60;1.50;;;12.40;99.90;;;;;;5092166;28;20280;-76
2022/09/28 10:10:50;;;;;;;1.98;1.80;;;12.40;99.90;;;;;;5092537;28;20706;-76
2022/09/28 10:13:17;;;;;;;1.60;1.50;;;12.50;99.90;;;;;;5088815;28;20229;-75
2022/09/28 10:15:46;;;;;;;1.60;1.50;;;12.50;99.90;;;;;;5093988;28;20198;-76
2022/09/28 10:18:15;;;;;;;1.65;1.55;;;12.60;99.90;;;;;;5089512;28;20263;-76
2022/09/28 10:20:44;;;;;;;1.63;1.52;;;12.60;99.90;;;;;;5091396;28;20214;-76
2022/09/28 10:23:21;;;;;;;2.00;1.83;;;12.60;99.90;;;;;;5094254;28;20281;-76
2022/09/28 10:25:52;;;;;;;1.75;1.65;;;12.70;99.90;;;;;;5093030;28;20560;-76
2022/09/28 10:28:33;;;;;;;1.83;1.73;;;12.90;99.90;;;;;;5089751;28;20725;-76
2022/09/28 10:31:02;;;;;;;1.70;1.60;;;12.90;99.90;;;;;;5089369;28;20223;-76
2022/09/28 10:33:31;;;;;;;1.77;1.67;;;12.90;99.90;;;;;;5088771;28;20225;-76
2022/09/28 10:36:00;;;;;;;1.70;1.60;;;12.90;99.90;;;;;;5087432;28;20418;-76
2022/09/28 10:38:28;;;;;;;1.80;1.70;;;12.80;99.90;;;;;;5094481;28;20652;-76
2022/09/28 10:40:59;;;;;;;1.67;1.58;;;12.80;99.90;;;;;;5090095;28;20236;-75
2022/09/28 10:43:29;;;;;;;1.65;1.55;;;12.90;99.90;;;;;;5093432;28;20225;-75
2022/09/28 10:46:07;;;;;;;1.85;1.63;;;12.90;99.90;;;;;;5094066;28;20202;-75
2022/09/28 10:48:47;;;;;;;1.73;1.55;;;13.00;99.90;;;;;;5090548;28;20686;-75
2022/09/28 10:51:14;;;;;;;1.80;1.70;;;13.10;99.90;;;;;;5090975;28;20227;-75
2022/09/28 10:53:41;;;;;;;1.55;1.45;;;13.10;99.90;;;;;;5090218;28;20233;-75
2022/09/28 10:56:22;;;;;;;1.70;1.60;;;13.10;99.90;;;;;;5088061;28;20627;-75
2022/09/28 10:58:50;;;;;;;1.80;1.70;;;13.20;99.90;;;;;;5091945;28;20273;-75
2022/09/28 11:01:20;;;;;;;1.60;1.50;;;13.30;99.90;;;;;;5094768;28;20219;-75
2022/09/28 11:03:55;;;;;;;1.77;1.67;;;13.40;99.90;;;;;;5092770;28;20221;-74
2022/09/28 11:06:27;;;;;;;1.90;1.80;;;13.50;99.90;;;;;;5088060;28;20201;-74
2022/09/28 11:08:58;;;;;;;1.77;1.67;;;13.40;99.90;;;;;;5087941;28;20671;-74
2022/09/28 11:11:28;;;;;;;1.60;1.50;;;13.50;99.90;;;;;;5095748;28;20582;-75
2022/09/28 11:14:00;;;;;;;1.80;1.70;;;13.50;99.90;;;;;;5087181;28;20217;-75
2022/09/28 11:16:29;;;;;;;2.08;1.88;;;13.60;99.90;;;;;;5088383;28;20221;-74
2022/09/28 11:18:56;;;;;;;1.48;1.38;;;13.70;99.90;;;;;;5083980;28;20594;-74
2022/09/28 11:21:26;;;;;;;1.80;1.70;;;13.70;99.90;;;;;;5086173;28;20205;-74
2022/09/28 11:24:04;;;;;;;1.90;1.80;;;13.70;99.90;;;;;;5089272;28;20213;-75
2022/09/28 11:26:41;;;;;;;1.88;1.77;;;13.90;99.90;;;;;;5092177;28;20235;-75
2022/09/28 11:29:22;;;;;;;2.45;1.67;;;14.10;99.90;;;;;;5088352;28;20262;-75
2022/09/28 11:31:49;;;;;;;2.67;1.98;;;14.20;99.90;;;;;;5094577;28;20201;-75
2022/09/28 11:34:22;;;;;;;1.80;1.67;;;14.20;99.90;;;;;;5087715;28;20218;-75
2022/09/28 11:37:05;;;;;;;3.83;1.70;;;14.10;99.90;;;;;;5087274;28;20194;-74
2022/09/28 11:39:44;;;;;;;2.00;1.90;;;14.00;99.90;;;;;;5084693;28;21991;-75
2022/09/28 11:42:25;;;;;;;1.60;1.50;;;14.00;99.90;;;;;;5091563;28;20197;-75
2022/09/28 11:44:58;;;;;;;2.17;2.08;;;14.10;99.90;;;;;;5087150;28;20217;-75
2022/09/28 11:47:46;;;;;;;1.70;1.60;;;14.20;99.90;;;;;;5089711;28;20813;-75
2022/09/28 11:50:21;;;;;;;1.60;1.50;;;14.40;99.90;;;;;;5082682;28;20226;-75
2022/09/28 11:52:54;;;;;;;1.80;1.70;;;14.50;99.90;;;;;;5090928;28;20223;-75
2022/09/28 11:55:32;;;;;;;2.13;1.58;;;14.60;99.90;;;;;;5083627;28;20213;-75
2022/09/28 11:58:06;;;;;;;2.05;1.90;;;14.70;99.90;;;;;;5081811;28;20205;-75
2022/09/28 12:00:42;;;;;;;1.83;1.60;;;14.80;99.90;;;;;;5086689;28;20213;-75
2022/09/28 12:03:15;;;;;;;4.57;2.20;;;14.80;99.90;;;;;;5090236;28;20272;-74
2022/09/28 12:05:47;;;;;;;1.85;1.73;;;14.80;99.90;;;;;;5087799;28;20198;-75
2022/09/28 12:08:19;;;;;;;1.63;1.52;;;14.80;99.90;;;;;;5086474;28;20236;-75
2022/09/28 12:10:51;;;;;;;2.75;1.70;;;14.80;99.90;;;;;;5083441;28;20221;-75
2022/09/28 12:13:24;;;;;;;2.33;1.77;;;14.80;99.90;;;;;;5084863;28;20228;-75
2022/09/28 12:15:55;;;;;;;1.70;1.60;;;14.80;99.90;;;;;;5085964;28;20232;-76
2022/09/28 12:18:27;;;;;;;1.58;1.48;;;14.80;99.90;;;;;;5087228;28;20232;-77
2022/09/28 12:21:03;;;;;;;1.52;1.42;;;14.80;99.90;;;;;;5087973;28;20268;-76
2022/09/28 12:23:34;;;;;;;2.38;1.90;;;15.00;99.90;;;;;;5086524;28;20550;-77
2022/09/28 12:26:04;;;;;;;1.73;1.63;;;15.30;99.90;;;;;;5088354;28;20656;-77
2022/09/28 12:28:39;;;;;;;1.80;1.58;;;15.50;99.90;;;;;;5083699;28;20243;-77
2022/09/28 12:31:15;;;;;;;2.15;1.70;;;15.90;99.90;;;;;;5086850;28;21700;-78
2022/09/28 12:33:47;;;;;;;1.80;1.70;;;16.40;99.90;;;;;;5086364;28;20232;-78
2022/09/28 12:36:27;;;;;;;1.63;1.52;;;16.60;99.90;;;;;;5088561;28;20201;-76
2022/09/28 12:39:07;;;;;;;1.52;1.42;;;16.80;99.90;;;;;;5092204;28;20228;-77
2022/09/28 12:41:48;;;;;;;1.40;1.25;;;17.10;99.90;;;;;;5091108;28;20228;-75
2022/09/28 12:44:40;;;;;;;1.63;1.52;;;17.40;99.90;;;;;;5091701;28;20749;-77
2022/09/28 12:47:30;;;;;;;1.67;1.58;;;17.60;99.90;;;;;;5093624;28;20204;-75
2022/09/28 12:50:12;;;;;;;2.70;1.55;;;17.90;99.90;;;;;;5091956;28;20229;-77
2022/09/28 12:52:55;;;;;;;2.20;1.58;;;18.00;99.90;;;;;;5090552;28;20221;-77
2022/09/28 12:55:38;;;;;;;2.00;1.10;;;17.90;99.90;;;;;;5092862;28;20220;-77
2022/09/28 12:58:18;;;;;;;1.33;1.30;;;17.50;99.90;;;;;;5092950;28;20255;-77
2022/09/28 13:00:59;;;;;;;1.48;1.38;;;17.20;99.90;;;;;;5090377;28;20217;-77
2022/09/28 13:03:44;;;;;;;2.05;1.30;;;16.80;99.90;;;;;;5091731;28;20229;-77
2022/09/28 13:06:41;;;;;;;1.40;1.30;;;16.50;99.90;;;;;;5091925;28;20190;-77
2022/09/28 13:09:21;;;;;;;1.60;1.50;;;16.20;99.90;;;;;;5081820;28;20213;-77
2022/09/28 13:12:09;;;;;;;1.60;1.50;;;16.10;99.90;;;;;;5091145;28;20647;-77
2022/09/28 13:15:04;;;;;;;1.60;1.50;;;15.80;99.90;;;;;;5089977;28;20703;-76
2022/09/28 13:17:42;;;;;;;1.70;1.60;;;15.50;99.90;;;;;;5090953;28;20262;-77